Time;durP1;ratioP1;P1;durP2;ratioP2;P2;SDS_P1;SDS_P2;PMS_P1;PMS_P2;Temp;Humidity;BMP_temperature;BMP_pressure;BME280_temperature;BME280_humidity;BME280_pressure;Samples;Min_cycle;Max_cycle;Signal;HPM_P1;HPM_P2
2021/06/02 00:01:55;;;;;;;11.83;3.57;;;;;;;11.13;62.57;96425.59;3510013;40;20498;-72
2021/06/02 00:04:24;;;;;;;5.97;3.07;;;;;;;10.96;63.23;96426.84;3508940;40;20499;-70
2021/06/02 00:06:57;;;;;;;4.10;2.47;;;;;;;10.93;63.24;96436.72;3507803;40;20467;-70
2021/06/02 00:09:25;;;;;;;6.70;2.83;;;;;;;10.88;63.38;96422.16;3508184;40;20490;-70
2021/06/02 00:11:56;;;;;;;4.57;2.73;;;;;;;10.98;62.97;96426.75;3507754;40;20840;-72
2021/06/02 00:14:25;;;;;;;5.73;2.70;;;;;;;10.95;63.04;96426.94;3507672;40;20851;-71
2021/06/02 00:16:55;;;;;;;3.30;2.77;;;;;;;10.98;63.04;96418.88;3506476;40;20588;-70
2021/06/02 00:19:23;;;;;;;5.10;2.93;;;;;;;10.94;62.98;96420.03;3507658;40;20776;-70
2021/06/02 00:21:52;;;;;;;7.20;3.10;;;;;;;10.91;63.22;96426.31;3498579;40;20546;-71
2021/06/02 00:24:20;;;;;;;8.20;3.57;;;;;;;10.73;64.17;96414.56;3506839;40;20927;-69
2021/06/02 00:26:51;;;;;;;4.00;2.80;;;;;;;10.73;64.01;96419.81;3506794;40;20796;-70
2021/06/02 00:29:19;;;;;;;4.93;3.13;;;;;;;10.72;63.93;96408.47;3496789;40;20476;-70
2021/06/02 00:31:48;;;;;;;8.97;3.63;;;;;;;10.71;64.19;96422.53;3506475;40;20475;-70
2021/06/02 00:34:19;;;;;;;4.00;3.00;;;;;;;10.34;65.99;96417.31;3506529;40;20799;-69
2021/06/02 00:36:49;;;;;;;4.30;2.80;;;;;;;10.29;65.75;96419.41;3505593;40;20503;-69
2021/06/02 00:39:17;;;;;;;10.13;3.57;;;;;;;10.45;65.26;96427.84;3506455;40;20459;-69
2021/06/02 00:41:47;;;;;;;6.53;3.40;;;;;;;10.44;65.20;96426.19;3506969;40;20463;-72
2021/06/02 00:44:16;;;;;;;5.70;3.20;;;;;;;10.50;65.04;96422.28;3506835;40;20834;-68
2021/06/02 00:46:45;;;;;;;6.63;3.23;;;;;;;10.37;65.06;96427.56;3507337;40;20550;-71
2021/06/02 00:49:16;;;;;;;6.70;2.90;;;;;;;10.36;65.25;96420.66;3507963;40;20439;-69
2021/06/02 00:51:46;;;;;;;4.70;2.97;;;;;;;10.30;65.45;96421.09;3498562;40;20546;-68
2021/06/02 00:54:14;;;;;;;9.47;4.10;;;;;;;10.20;65.76;96418.25;3506501;40;20463;-69
2021/06/02 00:56:47;;;;;;;6.30;3.63;;;;;;;10.18;66.53;96425.38;3505909;40;20552;-69
2021/06/02 00:59:17;;;;;;;5.33;3.63;;;;;;;10.18;66.61;96419.31;3505486;40;20803;-69
2021/06/02 01:01:46;;;;;;;11.07;3.80;;;;;;;10.16;66.45;96418.56;3505890;40;20923;-69
2021/06/02 01:04:15;;;;;;;7.97;4.13;;;;;;;10.05;67.01;96416.69;3505470;40;20701;-69
2021/06/02 01:06:45;;;;;;;5.87;3.70;;;;;;;10.07;66.65;96420.03;3507728;40;20997;-69
2021/06/02 01:09:15;;;;;;;7.27;3.33;;;;;;;10.04;66.73;96417.66;3505922;40;20674;-68
2021/06/02 01:11:43;;;;;;;7.40;3.17;;;;;;;10.18;65.75;96419.31;3507026;40;20839;-69
2021/06/02 01:14:10;;;;;;;7.43;3.43;;;;;;;10.13;66.29;96408.31;3507042;40;20460;-69
2021/06/02 01:16:38;;;;;;;12.40;4.40;;;;;;;9.86;67.15;96417.16;3507516;40;20557;-69
2021/06/02 01:19:10;;;;;;;6.37;3.37;;;;;;;9.68;68.04;96416.59;3506095;40;20562;-69
2021/06/02 01:21:50;;;;;;;4.60;3.50;;;;;;;9.64;67.97;96416.00;3495312;40;20481;-71
2021/06/02 01:24:18;;;;;;;10.40;3.30;;;;;;;9.70;67.77;96423.44;3506614;40;20833;-70
2021/06/02 01:26:47;;;;;;;6.17;3.83;;;;;;;9.57;67.56;96419.97;3505636;40;21004;-69
2021/06/02 01:29:14;;;;;;;5.83;3.57;;;;;;;9.37;68.29;96415.22;3504931;40;20771;-69
2021/06/02 01:32:06;;;;;;;9.30;3.70;;;;;;;9.47;67.85;96421.53;3506820;40;20529;-72
2021/06/02 01:34:55;;;;;;;3.40;2.97;;;;;;;9.54;67.32;96422.78;3509177;40;20509;-72
2021/06/02 01:37:39;;;;;;;5.73;3.37;;;;;;;9.47;67.88;96419.75;3508987;40;20743;-70
2021/06/02 01:40:34;;;;;;;5.07;3.43;;;;;;;9.49;68.01;96419.66;3500978;40;20490;-71
2021/06/02 01:43:21;;;;;;;8.43;3.30;;;;;;;9.47;67.94;96417.13;3507168;40;20490;-70
2021/06/02 01:46:26;;;;;;;6.33;3.67;;;;;;;9.45;67.91;96415.56;3506886;40;20451;-69
2021/06/02 01:49:06;;;;;;;5.23;3.80;;;;;;;9.44;68.37;96419.09;3508617;40;20457;-69
2021/06/02 01:52:23;;;;;;;5.67;3.50;;;;;;;9.49;67.91;96420.47;3493280;40;20829;-70
2021/06/02 01:55:28;;;;;;;5.47;3.80;;;;;;;9.42;68.29;96418.38;3506696;40;20692;-69
2021/06/02 01:58:25;;;;;;;5.77;3.60;;;;;;;9.39;68.45;96411.59;3495406;40;20800;-69
2021/06/02 02:01:10;;;;;;;5.20;3.30;;;;;;;9.26;68.60;96414.16;3508249;40;20775;-70
2021/06/02 02:04:10;;;;;;;5.00;2.80;;;;;;;9.36;68.35;96409.16;3508474;40;21198;-70
2021/06/02 02:07:00;;;;;;;6.37;3.30;;;;;;;9.25;68.45;96414.25;3509247;40;20771;-71
2021/06/02 02:09:39;;;;;;;6.10;3.30;;;;;;;9.26;68.59;96410.72;3499045;40;20475;-68
2021/06/02 02:12:28;;;;;;;8.23;3.20;;;;;;;8.98;69.83;96411.72;3507830;40;20466;-69
2021/06/02 02:15:07;;;;;;;4.53;3.30;;;;;;;8.51;71.42;96417.28;3507596;40;20546;-69
2021/06/02 02:17:54;;;;;;;6.97;3.07;;;;;;;8.50;70.97;96397.31;3506898;40;20844;-70
2021/06/02 02:20:31;;;;;;;4.70;3.50;;;;;;;8.77;70.10;96408.72;3507101;40;20836;-69
2021/06/02 02:23:21;;;;;;;11.23;3.97;;;;;;;8.74;69.67;96409.72;3507915;40;20719;-69
2021/06/02 02:25:56;;;;;;;5.00;3.03;;;;;;;8.71;69.65;96412.56;3508238;40;20816;-69
2021/06/02 02:28:48;;;;;;;4.90;2.80;;;;;;;8.48;70.27;96411.41;3507558;40;20656;-68
2021/06/02 02:31:31;;;;;;;5.97;3.40;;;;;;;8.38;70.36;96418.94;3505720;40;20479;-69
2021/06/02 02:34:04;;;;;;;6.63;3.10;;;;;;;8.55;69.87;96409.25;3499494;40;20484;-69
2021/06/02 02:36:37;;;;;;;4.90;3.30;;;;;;;8.48;70.15;96420.06;3505754;40;20875;-72
2021/06/02 02:39:11;;;;;;;3.10;2.40;;;;;;;8.24;70.19;96406.75;3507455;40;20962;-71
2021/06/02 02:41:49;;;;;;;4.03;2.60;;;;;;;8.39;69.69;96415.41;3506806;40;20561;-70
2021/06/02 02:44:39;;;;;;;8.50;2.93;;;;;;;8.54;69.45;96410.19;3506224;40;20887;-72
2021/06/02 02:47:13;;;;;;;5.20;2.90;;;;;;;8.48;69.47;96414.84;3508321;40;20534;-70
2021/06/02 02:49:51;;;;;;;5.80;3.43;;;;;;;8.47;69.50;96425.41;3508925;40;20461;-70
2021/06/02 02:52:27;;;;;;;5.43;3.23;;;;;;;8.35;70.66;96426.13;3508063;40;20475;-70
2021/06/02 02:55:02;;;;;;;5.20;3.80;;;;;;;8.29;70.88;96419.50;3507055;40;20471;-70
2021/06/02 02:57:38;;;;;;;4.40;3.17;;;;;;;8.30;70.91;96431.63;3507654;40;20502;-70
2021/06/02 03:00:11;;;;;;;6.00;3.60;;;;;;;8.33;70.79;96436.66;3508409;40;20562;-72
2021/06/02 03:02:44;;;;;;;7.57;3.47;;;;;;;8.24;71.10;96435.47;3506399;40;20483;-70
2021/06/02 03:05:16;;;;;;;7.50;2.70;;;;;;;8.00;72.02;96434.38;3507355;40;20438;-72
2021/06/02 03:08:05;;;;;;;5.63;3.10;;;;;;;8.15;71.51;96427.34;3505459;40;20467;-72
2021/06/02 03:10:36;;;;;;;4.67;3.13;;;;;;;8.37;70.64;96447.72;3508584;40;20554;-71
2021/06/02 03:13:11;;;;;;;7.90;3.50;;;;;;;8.33;70.64;96444.50;3507793;40;20883;-70
2021/06/02 03:15:43;;;;;;;4.97;2.80;;;;;;;8.29;70.57;96443.00;3507591;40;20454;-71
2021/06/02 03:18:28;;;;;;;3.53;2.63;;;;;;;8.30;70.49;96445.50;3507794;40;21072;-71
2021/06/02 03:21:09;;;;;;;3.80;2.67;;;;;;;8.32;70.53;96448.03;3506768;40;20463;-70
2021/06/02 03:23:53;;;;;;;5.27;3.13;;;;;;;8.21;71.26;96450.47;3506279;40;20626;-69
2021/06/02 03:26:27;;;;;;;4.40;2.50;;;;;;;8.04;71.64;96454.94;3507347;40;20554;-70
2021/06/02 03:29:02;;;;;;;3.50;2.60;;;;;;;7.90;71.93;96457.56;3506390;40;20849;-70
2021/06/02 03:31:47;;;;;;;6.43;3.17;;;;;;;7.83;71.81;96451.03;3507377;40;20974;-70
2021/06/02 03:34:23;;;;;;;4.50;2.90;;;;;;;7.93;71.46;96459.97;3507606;40;20485;-71
2021/06/02 03:37:04;;;;;;;5.57;3.20;;;;;;;7.98;71.48;96459.69;3507046;40;20490;-71
2021/06/02 03:39:52;;;;;;;5.50;3.23;;;;;;;8.03;71.51;96458.47;3506283;40;20951;-71
2021/06/02 03:42:31;;;;;;;6.20;3.50;;;;;;;8.15;71.26;96458.66;3503279;40;20775;-70
2021/06/02 03:45:18;;;;;;;7.23;3.43;;;;;;;8.16;71.76;96455.97;3508137;40;20467;-70
2021/06/02 03:47:58;;;;;;;7.07;3.80;;;;;;;8.22;71.61;96457.38;3506736;40;20581;-72
2021/06/02 03:50:30;;;;;;;5.20;3.73;;;;;;;8.16;71.93;96442.09;3507572;40;20508;-71
2021/06/02 03:53:19;;;;;;;7.63;3.10;;;;;;;8.20;71.50;96456.63;3496785;40;20947;-70
2021/06/02 03:55:56;;;;;;;7.10;3.47;;;;;;;8.25;71.66;96463.25;3505492;40;20854;-72
2021/06/02 03:58:33;;;;;;;9.30;3.40;;;;;;;7.94;73.24;96466.88;3515194;40;20477;-70
2021/06/02 04:01:12;;;;;;;6.57;3.77;;;;;;;8.04;72.87;96459.34;3508777;40;20712;-71
2021/06/02 04:03:59;;;;;;;7.40;3.53;;;;;;;8.11;72.43;96461.47;3507778;40;20470;-71
2021/06/02 04:06:33;;;;;;;6.40;3.40;;;;;;;8.24;72.14;96461.53;3507376;40;20758;-72
2021/06/02 04:09:08;;;;;;;4.80;2.90;;;;;;;8.41;71.50;96457.94;3507276;40;20863;-71
2021/06/02 04:11:41;;;;;;;6.90;3.43;;;;;;;8.22;71.26;96459.97;3499116;40;20468;-72
2021/06/02 04:14:08;;;;;;;6.70;3.40;;;;;;;8.25;70.61;96462.38;3507305;40;20487;-72
2021/06/02 04:16:37;;;;;;;4.57;3.10;;;;;;;8.27;70.51;96463.13;3506340;40;20829;-72
2021/06/02 04:19:07;;;;;;;8.20;3.53;;;;;;;8.17;70.90;96472.44;3507704;40;20828;-72
2021/06/02 04:21:38;;;;;;;5.43;3.30;;;;;;;7.73;71.02;96467.22;3506381;40;20795;-71
2021/06/02 04:24:07;;;;;;;4.60;3.37;;;;;;;7.90;70.68;96468.00;3506874;40;20481;-71
2021/06/02 04:26:36;;;;;;;11.57;4.17;;;;;;;7.89;69.57;96472.34;3506054;40;20463;-72
2021/06/02 04:29:10;;;;;;;20.40;4.40;;;;;;;7.88;69.87;96475.91;3508280;40;20440;-71
2021/06/02 04:31:39;;;;;;;24.73;4.37;;;;;;;7.98;69.19;96475.31;3506195;40;20498;-71
2021/06/02 04:34:08;;;;;;;11.43;3.60;;;;;;;7.98;69.60;96478.78;3506749;40;20569;-72
2021/06/02 04:36:35;;;;;;;7.10;3.80;;;;;;;8.25;69.32;96489.31;3498266;40;20701;-71
2021/06/02 04:39:03;;;;;;;7.83;3.70;;;;;;;8.37;69.26;96487.72;3506428;40;20787;-71
2021/06/02 04:41:30;;;;;;;6.23;3.80;;;;;;;8.47;69.17;96488.88;3507510;40;20934;-73
2021/06/02 04:43:59;;;;;;;8.33;4.40;;;;;;;8.40;69.38;96481.47;3498452;40;20473;-71
2021/06/02 04:46:26;;;;;;;7.80;3.80;;;;;;;8.51;69.37;96485.13;3507525;40;20467;-71
2021/06/02 04:48:54;;;;;;;5.87;3.53;;;;;;;8.59;70.18;96484.66;3506987;40;20913;-71
2021/06/02 04:52:01;;;;;;;5.53;3.43;;;;;;;8.97;69.14;96485.78;3511741;40;20725;-72
2021/06/02 04:55:03;;;;;;;5.63;3.40;;;;;;;9.25;69.50;96482.19;3505853;40;20498;-72
2021/06/02 04:57:55;;;;;;;6.60;2.70;;;;;;;9.57;68.66;96482.72;3506820;40;20492;-71
2021/06/02 05:00:49;;;;;;;5.80;3.63;;;;;;;9.68;68.30;96484.59;3508181;40;20549;-73
2021/06/02 05:03:52;;;;;;;6.03;3.80;;;;;;;9.77;67.58;96493.63;3508094;40;20829;-71
2021/06/02 05:07:02;;;;;;;5.00;3.60;;;;;;;9.93;67.59;96499.47;3507015;40;20493;-72
2021/06/02 05:10:02;;;;;;;9.30;3.70;;;;;;;9.95;66.39;96499.38;3507976;40;20530;-72
2021/06/02 05:13:17;;;;;;;7.67;4.27;;;;;;;9.77;66.98;96496.22;3507583;40;20584;-71
2021/06/02 05:16:33;;;;;;;6.13;3.87;;;;;;;10.00;66.61;96505.16;3513264;40;20863;-70
2021/06/02 05:19:47;;;;;;;13.70;5.13;;;;;;;10.11;66.32;96505.22;3507504;40;20734;-72
2021/06/02 05:23:06;;;;;;;9.37;3.63;;;;;;;10.25;66.17;96512.13;3499053;40;20776;-72
2021/06/02 05:26:19;;;;;;;8.63;4.63;;;;;;;10.53;65.68;96518.13;3509792;40;20646;-73
2021/06/02 05:29:23;;;;;;;5.77;3.53;;;;;;;10.79;65.92;96517.13;3498565;40;20497;-73
2021/06/02 05:32:51;;;;;;;10.10;3.60;;;;;;;11.35;64.27;96505.28;3516576;40;20492;-72
2021/06/02 05:35:50;;;;;;;57.13;6.17;;;;;;;11.82;64.00;96500.94;3506211;40;21024;-71
2021/06/02 05:38:55;;;;;;;11.97;4.10;;;;;;;12.09;63.10;96507.69;3498273;40;20519;-73
2021/06/02 05:41:41;;;;;;;9.80;4.30;;;;;;;12.41;63.05;96511.28;3501554;40;20867;-72
2021/06/02 05:44:45;;;;;;;7.27;3.80;;;;;;;12.68;61.80;96499.56;3500018;40;20440;-72
2021/06/02 05:48:04;;;;;;;14.30;3.70;;;;;;;12.81;61.70;96505.53;3502182;40;20782;-73
2021/06/02 05:50:52;;;;;;;10.10;4.20;;;;;;;13.05;61.12;96502.75;3508577;40;20808;-71
2021/06/02 05:54:02;;;;;;;14.03;4.20;;;;;;;13.47;59.82;96501.22;3504795;40;20553;-72
2021/06/02 05:57:01;;;;;;;9.43;3.87;;;;;;;13.60;58.94;96500.09;3499785;40;20800;-70
2021/06/02 06:00:22;;;;;;;10.20;3.77;;;;;;;14.03;57.49;96498.28;3506444;40;21108;-70
2021/06/02 06:03:40;;;;;;;8.80;3.90;;;;;;;14.48;57.76;96494.50;3468502;41;20799;-71
2021/06/02 06:06:22;;;;;;;5.77;3.33;;;;;;;14.27;56.79;96491.91;3476814;41;20936;-72
2021/06/02 06:09:25;;;;;;;6.90;4.00;;;;;;;14.09;56.67;96496.94;3499951;40;20480;-70
2021/06/02 06:12:25;;;;;;;12.77;4.30;;;;;;;14.23;56.42;96497.44;3506539;40;20581;-70
2021/06/02 06:15:46;;;;;;;20.63;4.30;;;;;;;14.52;55.39;96498.53;3506835;40;20824;-71
2021/06/02 06:18:45;;;;;;;6.20;3.50;;;;;;;14.53;56.18;96503.69;3475381;41;20484;-70
2021/06/02 06:21:35;;;;;;;7.57;4.27;;;;;;;14.76;56.72;96496.47;3507816;40;20818;-70
2021/06/02 06:24:06;;;;;;;6.57;4.13;;;;;;;14.73;58.30;96496.72;3509042;40;21030;-71
2021/06/02 06:26:38;;;;;;;7.13;3.80;;;;;;;14.92;58.01;96506.50;3499826;40;20824;-70
2021/06/02 06:29:12;;;;;;;5.57;4.00;;;;;;;15.07;58.42;96509.56;3508835;40;20735;-71
2021/06/02 06:31:47;;;;;;;9.17;4.03;;;;;;;15.21;58.67;96517.13;3506691;40;20464;-71
2021/06/02 06:34:20;;;;;;;5.90;3.10;;;;;;;15.62;54.45;96509.94;3508620;40;20736;-70
2021/06/02 06:36:51;;;;;;;9.23;2.80;;;;;;;16.13;48.66;96507.13;3508031;40;20466;-69
2021/06/02 06:39:27;;;;;;;8.60;2.83;;;;;;;16.61;46.97;96506.16;3509061;40;20566;-70
2021/06/02 06:41:55;;;;;;;3.40;2.00;;;;;;;16.88;44.71;96496.59;3508859;40;20486;-72
2021/06/02 06:44:25;;;;;;;3.00;2.30;;;;;;;16.52;45.91;96493.78;3499508;40;20482;-68
2021/06/02 06:46:55;;;;;;;5.17;2.50;;;;;;;17.02;43.63;96492.63;3507213;40;20774;-71
2021/06/02 06:49:25;;;;;;;6.63;2.90;;;;;;;17.39;42.84;96481.94;3509104;40;20466;-71
2021/06/02 06:51:53;;;;;;;4.90;2.23;;;;;;;17.66;43.60;96477.53;3510754;40;20858;-71
2021/06/02 06:54:22;;;;;;;3.90;1.97;;;;;;;17.85;41.31;96480.03;3508714;40;20992;-68
2021/06/02 06:56:51;;;;;;;5.03;2.07;;;;;;;18.00;39.95;96471.56;3507985;40;20521;-70
2021/06/02 06:59:20;;;;;;;2.47;2.17;;;;;;;18.29;38.53;96469.44;3507988;40;20873;-70
2021/06/02 07:01:47;;;;;;;12.50;2.67;;;;;;;18.22;39.40;96473.69;3494817;40;20460;-71
2021/06/02 07:04:15;;;;;;;3.73;1.80;;;;;;;18.32;39.48;96477.03;3507632;40;20538;-70
2021/06/02 07:06:45;;;;;;;6.70;2.17;;;;;;;18.93;37.10;96474.38;3507859;40;21090;-69
2021/06/02 07:09:13;;;;;;;2.20;1.67;;;;;;;18.83;36.72;96473.69;3508651;40;20689;-68
2021/06/02 07:11:43;;;;;;;3.37;1.67;;;;;;;19.11;37.03;96484.88;3508123;40;20478;-68
2021/06/02 07:14:15;;;;;;;2.40;1.57;;;;;;;19.14;35.55;96477.44;3509482;40;20719;-73
2021/06/02 07:16:43;;;;;;;5.20;1.60;;;;;;;19.10;36.35;96481.41;3508811;40;20841;-70
2021/06/02 07:19:12;;;;;;;9.77;1.73;;;;;;;18.91;37.49;96490.44;3510349;40;20777;-71
2021/06/02 07:21:42;;;;;;;3.77;1.70;;;;;;;19.09;37.26;96487.72;3509342;40;20582;-72
2021/06/02 07:24:11;;;;;;;3.53;1.70;;;;;;;19.31;37.89;96494.25;3511321;40;20777;-70
2021/06/02 07:26:39;;;;;;;12.97;1.90;;;;;;;19.07;37.37;96492.34;3509875;40;20816;-71
2021/06/02 07:29:23;;;;;;;4.87;1.60;;;;;;;19.32;37.30;96503.03;3508316;40;20553;-70
2021/06/02 07:31:51;;;;;;;2.60;2.17;;;;;;;19.69;38.22;96493.78;3509425;40;20919;-72
2021/06/02 07:34:20;;;;;;;11.27;2.77;;;;;;;19.75;36.75;96495.81;3508412;40;20478;-72
2021/06/02 07:36:48;;;;;;;4.73;2.47;;;;;;;19.59;36.87;96495.78;3497156;40;20479;-70
2021/06/02 07:39:17;;;;;;;5.60;2.07;;;;;;;19.81;36.70;96502.31;3508821;40;20447;-71
2021/06/02 07:41:44;;;;;;;8.00;1.93;;;;;;;19.91;36.99;96500.31;3506038;40;20471;-70
2021/06/02 07:44:14;;;;;;;4.90;2.47;;;;;;;19.97;37.29;96502.28;3506231;40;20555;-72
2021/06/02 07:46:42;;;;;;;5.63;1.80;;;;;;;20.17;36.88;96499.28;3506752;40;20832;-70
2021/06/02 07:49:09;;;;;;;4.53;2.13;;;;;;;20.68;37.11;96508.72;3506878;40;20748;-69
2021/06/02 07:51:37;;;;;;;4.60;1.97;;;;;;;20.26;37.58;96503.59;3508092;40;20475;-71
2021/06/02 07:54:05;;;;;;;9.00;2.23;;;;;;;20.38;37.55;96506.75;3511907;40;20444;-69
2021/06/02 07:56:35;;;;;;;5.10;3.10;;;;;;;20.30;36.63;96505.75;3507887;40;21019;-70
2021/06/02 07:59:02;;;;;;;6.17;2.40;;;;;;;20.50;35.93;96506.22;3509977;40;21168;-70
2021/06/02 08:01:30;;;;;;;6.93;2.20;;;;;;;20.01;36.49;96506.28;3511422;40;21124;-69
2021/06/02 08:03:57;;;;;;;8.37;2.33;;;;;;;20.42;36.79;96486.78;3510631;40;20755;-70
2021/06/02 08:06:28;;;;;;;6.20;2.33;;;;;;;20.51;36.02;96504.41;3508764;40;20482;-70
2021/06/02 08:08:55;;;;;;;6.10;1.73;;;;;;;20.91;35.72;96500.81;3507315;40;20546;-70
2021/06/02 08:11:23;;;;;;;8.40;1.93;;;;;;;20.59;35.88;96499.09;3509272;40;20844;-68
2021/06/02 08:13:52;;;;;;;5.83;1.73;;;;;;;20.40;35.69;96502.09;3513151;40;20675;-70
2021/06/02 08:16:19;;;;;;;6.00;1.83;;;;;;;20.93;35.28;96511.25;3507794;40;20763;-70
2021/06/02 08:18:47;;;;;;;7.50;2.30;;;;;;;21.11;34.66;96509.22;3508287;40;20915;-69
2021/06/02 08:21:14;;;;;;;15.77;2.23;;;;;;;21.76;32.93;96507.19;3507034;40;20765;-70
2021/06/02 08:23:45;;;;;;;3.77;1.60;;;;;;;21.23;32.44;96514.97;3504351;40;20742;-70
2021/06/02 08:26:14;;;;;;;7.90;1.87;;;;;;;21.46;32.26;96508.88;3507965;40;20487;-70
2021/06/02 08:28:41;;;;;;;8.60;2.07;;;;;;;22.06;31.48;96507.28;3507044;40;20849;-69
2021/06/02 08:31:10;;;;;;;2.70;1.70;;;;;;;22.19;31.93;96507.50;3506766;40;20535;-70
2021/06/02 08:33:37;;;;;;;2.20;1.40;;;;;;;21.34;34.12;96511.06;3505264;40;20490;-71
2021/06/02 08:36:05;;;;;;;7.50;1.90;;;;;;;22.32;32.79;96506.91;3494150;40;20853;-70
2021/06/02 08:38:33;;;;;;;3.80;1.80;;;;;;;22.97;30.66;96510.69;3501625;40;20577;-68
2021/06/02 08:41:01;;;;;;;4.33;1.43;;;;;;;22.85;30.63;96509.53;3502855;40;20792;-69
2021/06/02 08:43:28;;;;;;;65.77;32.87;;;;;;;23.33;30.77;96499.28;3504854;40;21112;-71
2021/06/02 08:45:56;;;;;;;14.13;2.17;;;;;;;23.28;29.48;96496.31;3504063;40;21028;-69
2021/06/02 08:48:25;;;;;;;7.47;2.00;;;;;;;22.96;29.99;96498.38;3491115;40;20546;-70
2021/06/02 08:50:53;;;;;;;10.03;1.70;;;;;;;23.97;29.78;96503.03;3504178;40;20459;-70
2021/06/02 08:53:21;;;;;;;5.13;2.07;;;;;;;24.57;29.57;96504.34;3495020;40;20871;-69
2021/06/02 08:55:49;;;;;;;3.20;2.00;;;;;;;23.70;28.39;96500.09;3506074;40;20753;-70
2021/06/02 08:58:18;;;;;;;5.27;2.13;;;;;;;25.00;26.52;96508.72;3504218;40;21187;-70
2021/06/02 09:00:46;;;;;;;5.43;2.17;;;;;;;25.07;25.76;96512.28;3506172;40;20919;-71
2021/06/02 09:03:14;;;;;;;2.60;1.40;;;;;;;23.68;27.39;96507.47;3493478;40;20481;-71
2021/06/02 09:05:43;;;;;;;3.43;1.87;;;;;;;23.12;27.41;96513.41;3505454;40;20771;-70
2021/06/02 09:08:14;;;;;;;8.40;1.90;;;;;;;23.88;27.18;96513.03;3507915;40;20482;-70
2021/06/02 09:10:45;;;;;;;3.67;1.97;;;;;;;23.91;27.20;96517.16;3508613;40;20447;-71
2021/06/02 09:13:17;;;;;;;4.73;1.60;;;;;;;23.93;28.13;96512.44;3506897;40;20690;-71
2021/06/02 09:15:46;;;;;;;4.20;1.93;;;;;;;24.32;26.81;96513.81;3508199;40;20478;-70
2021/06/02 09:18:17;;;;;;;5.13;2.07;;;;;;;23.92;27.63;96524.19;3507501;40;20546;-71
2021/06/02 09:20:47;;;;;;;8.20;1.60;;;;;;;23.90;28.78;96520.88;3509655;40;20770;-69
2021/06/02 09:23:34;;;;;;;2.57;1.63;;;;;;;24.79;26.64;96520.34;3508397;40;20467;-70
2021/06/02 09:26:17;;;;;;;4.23;1.87;;;;;;;23.45;27.28;96527.16;3503212;40;20515;-71
2021/06/02 09:28:45;;;;;;;6.70;1.83;;;;;;;24.31;26.08;96525.56;3508726;40;20469;-71
2021/06/02 09:31:27;;;;;;;18.33;8.80;;;;;;;24.34;25.42;96507.25;3509469;40;20803;-71
2021/06/02 09:33:56;;;;;;;2.60;1.90;;;;;;;25.21;24.86;96513.16;3508616;40;20701;-70
2021/06/02 09:36:32;;;;;;;8.90;1.30;;;;;;;24.74;25.60;96520.94;3508859;40;20534;-71
2021/06/02 09:39:03;;;;;;;7.17;1.60;;;;;;;24.17;27.29;96517.41;3494984;40;20744;-71
2021/06/02 09:41:37;;;;;;;2.17;1.47;;;;;;;23.48;28.42;96518.78;3509048;40;20550;-69
2021/06/02 09:44:13;;;;;;;2.10;1.43;;;;;;;24.17;27.96;96498.69;3509409;40;20776;-69
2021/06/02 09:47:04;;;;;;;2.90;1.57;;;;;;;24.65;27.31;96516.75;3509716;40;20454;-69
2021/06/02 09:49:46;;;;;;;10.70;2.60;;;;;;;25.48;26.02;96513.25;3507492;40;20451;-70
2021/06/02 09:52:16;;;;;;;3.23;1.33;;;;;;;26.21;25.07;96513.44;3508235;40;20475;-70
2021/06/02 09:54:44;;;;;;;7.20;1.67;;;;;;;26.57;24.24;96510.31;3507650;40;21035;-71
2021/06/02 09:57:12;;;;;;;12.03;1.87;;;;;;;26.74;24.13;96509.91;3509845;40;20444;-70
2021/06/02 09:59:56;;;;;;;10.87;1.97;;;;;;;27.72;24.05;96509.75;3500510;40;20944;-71
2021/06/02 10:02:24;;;;;;;9.33;2.23;;;;;;;27.38;23.78;96511.78;3509862;40;20447;-70
2021/06/02 10:04:59;;;;;;;3.20;1.37;;;;;;;26.12;25.64;96515.47;3509525;40;20471;-71
2021/06/02 10:07:28;;;;;;;4.10;1.50;;;;;;;25.89;25.66;96510.47;3508672;40;20868;-70
2021/06/02 10:10:07;;;;;;;3.43;1.67;;;;;;;25.92;26.66;96504.72;3509683;40;20485;-72
2021/06/02 10:12:35;;;;;;;5.03;1.80;;;;;;;26.68;24.95;96513.41;3496119;40;20677;-71
2021/06/02 10:15:04;;;;;;;2.03;1.47;;;;;;;25.51;25.63;96516.38;3498073;40;20842;-71
2021/06/02 10:17:33;;;;;;;7.57;1.80;;;;;;;24.82;26.17;96525.31;3509176;40;21129;-70
2021/06/02 10:20:06;;;;;;;3.63;1.70;;;;;;;25.31;25.99;96513.63;3507110;40;20499;-71
2021/06/02 10:22:36;;;;;;;3.80;1.80;;;;;;;26.54;24.74;96507.19;3508628;40;20471;-70
2021/06/02 10:25:06;;;;;;;5.97;2.10;;;;;;;27.87;23.66;96517.50;3509354;40;20747;-70
2021/06/02 10:27:34;;;;;;;3.23;1.50;;;;;;;28.38;23.36;96507.63;3510209;40;20503;-71
2021/06/02 10:30:05;;;;;;;7.43;1.77;;;;;;;28.74;23.85;96514.19;3509322;40;20915;-70
2021/06/02 10:32:33;;;;;;;4.20;2.10;;;;;;;29.50;22.50;96515.63;3506952;40;20486;-70
2021/06/02 10:35:01;;;;;;;5.73;1.43;;;;;;;29.75;21.77;96515.50;3509033;40;20479;-71
2021/06/02 10:37:29;;;;;;;4.90;1.60;;;;;;;29.79;21.51;96517.75;3509555;40;20452;-70
2021/06/02 10:40:03;;;;;;;2.50;1.40;;;;;;;30.28;21.25;96516.56;3512872;40;20909;-71
2021/06/02 10:42:36;;;;;;;5.77;1.60;;;;;;;29.20;21.94;96515.56;3512416;40;20428;-71
2021/06/02 10:45:11;;;;;;;6.80;2.00;;;;;;;27.15;23.84;96514.94;3511265;40;20467;-71
2021/06/02 10:47:40;;;;;;;16.43;2.10;;;;;;;29.54;22.25;96506.03;3507677;40;20455;-70
2021/06/02 10:50:28;;;;;;;9.00;1.87;;;;;;;29.54;20.67;96507.88;3509081;40;20471;-70
2021/06/02 10:52:55;;;;;;;3.60;2.00;;;;;;;26.55;23.80;96515.06;3509198;40;20467;-71
2021/06/02 10:55:36;;;;;;;12.83;2.40;;;;;;;26.39;23.98;96512.81;3509911;40;20880;-71
2021/06/02 10:58:27;;;;;;;2.30;1.43;;;;;;;26.94;23.33;96515.22;3510243;40;20837;-70
2021/06/02 11:01:13;;;;;;;9.73;1.60;;;;;;;28.82;22.66;96511.19;3508670;40;20709;-70
2021/06/02 11:03:43;;;;;;;6.90;2.07;;;;;;;29.65;22.79;96511.69;3509080;40;20463;-70
2021/06/02 11:06:36;;;;;;;3.10;1.67;;;;;;;28.25;23.84;96502.38;3508345;40;20443;-71
2021/06/02 11:09:16;;;;;;;21.87;2.93;;;;;;;26.58;24.50;96497.69;3507578;40;21022;-70
2021/06/02 11:11:46;;;;;;;2.23;1.57;;;;;;;26.99;23.47;96516.25;3508346;40;20829;-71
2021/06/02 11:14:25;;;;;;;3.30;1.50;;;;;;;27.27;23.91;96517.00;3508916;40;20500;-70
2021/06/02 11:17:10;;;;;;;11.33;1.80;;;;;;;27.42;25.10;96509.47;3509173;40;20977;-71
2021/06/02 11:19:41;;;;;;;6.40;1.83;;;;;;;28.79;23.29;96514.31;3495009;40;20466;-72
2021/06/02 11:22:14;;;;;;;3.97;1.70;;;;;;;28.70;24.91;96510.28;3510888;40;20792;-71
2021/06/02 11:24:44;;;;;;;3.63;1.50;;;;;;;29.48;23.44;96511.47;3510375;40;20541;-69
2021/06/02 11:27:39;;;;;;;14.77;2.20;;;;;;;30.40;23.37;96502.28;3500322;40;20780;-71
2021/06/02 11:30:26;;;;;;;17.93;2.43;;;;;;;31.28;22.69;96503.19;3502283;40;20767;-72
2021/06/02 11:33:00;;;;;;;19.03;9.13;;;;;;;30.38;23.53;96509.81;3509206;40;20565;-72
2021/06/02 11:36:09;;;;;;;54.17;6.10;;;;;;;30.37;24.01;96519.81;3507345;40;20489;-71
2021/06/02 11:38:38;;;;;;;9.30;1.70;;;;;;;30.19;23.48;96499.09;3506703;40;20927;-72
2021/06/02 11:41:06;;;;;;;5.10;1.60;;;;;;;31.46;21.83;96516.59;3507653;40;20475;-71
2021/06/02 11:43:47;;;;;;;2.60;1.50;;;;;;;32.32;20.36;96515.69;3507768;40;20895;-71
2021/06/02 11:46:14;;;;;;;8.47;1.90;;;;;;;28.33;24.68;96515.56;3507675;40;20921;-71
2021/06/02 11:48:42;;;;;;;4.27;1.60;;;;;;;30.83;22.35;96512.75;3507020;40;20455;-72
2021/06/02 11:51:11;;;;;;;4.80;1.40;;;;;;;32.20;20.69;96517.66;3506899;40;20485;-72
2021/06/02 11:53:49;;;;;;;5.73;1.60;;;;;;;30.89;21.23;96517.25;3507678;40;20843;-71
2021/06/02 11:56:19;;;;;;;6.17;1.50;;;;;;;32.29;20.95;96508.88;3509599;40;20450;-71
2021/06/02 11:58:51;;;;;;;19.93;12.50;;;;;;;30.91;21.20;96514.31;3509708;40;20514;-72
2021/06/02 12:01:24;;;;;;;8.30;2.57;;;;;;;32.37;20.16;96521.22;3507523;40;20485;-72
2021/06/02 12:03:56;;;;;;;6.10;1.83;;;;;;;29.97;21.04;96525.78;3507367;40;20840;-71
2021/06/02 12:06:32;;;;;;;2.80;1.53;;;;;;;29.07;22.88;96521.91;3501310;40;20537;-71
2021/06/02 12:09:01;;;;;;;5.43;1.30;;;;;;;27.46;23.76;96524.13;3507873;40;20704;-70
2021/06/02 12:11:28;;;;;;;9.67;1.80;;;;;;;30.36;23.41;96523.53;3509648;40;20440;-70
2021/06/02 12:13:57;;;;;;;19.73;2.40;;;;;;;31.55;21.58;96519.72;3500628;40;20678;-72
2021/06/02 12:16:26;;;;;;;12.37;1.80;;;;;;;32.32;19.89;96507.56;3508893;40;20935;-70
2021/06/02 12:18:59;;;;;;;12.10;2.70;;;;;;;32.83;20.79;96519.25;3508926;40;20760;-71
2021/06/02 12:21:31;;;;;;;11.00;1.83;;;;;;;31.83;18.78;96518.06;3508977;40;20459;-71